Time;durP1;ratioP1;P1;durP2;ratioP2;P2;SDS_P1;SDS_P2;PMS_P1;PMS_P2;Temp;Humidity;BMP_temperature;BMP_pressure;BME280_temperature;BME280_humidity;BME280_pressure;Samples;Min_cycle;Max_cycle;Signal;HPM_P1;HPM_P2
2023/04/25 00:00:26;;;;;;;1.80;0.70;;;;;;;;;;4919776;29;20095;-58
2023/04/25 00:02:57;;;;;;;0.73;0.40;;;;;;;;;;4918775;29;20496;-59
2023/04/25 00:05:25;;;;;;;2.95;0.40;;;;;;;;;;4915490;29;20131;-58
2023/04/25 00:07:54;;;;;;;0.85;0.68;;;;;;;;;;4922901;29;20470;-57
2023/04/25 00:10:22;;;;;;;0.70;0.50;;;;;;;;;;4927419;29;20048;-58
2023/04/25 00:12:51;;;;;;;0.38;0.38;;;;;;;;;;4930484;29;20268;-59
2023/04/25 00:15:19;;;;;;;0.30;0.30;;;;;;;;;;4928717;28;20055;-59
2023/04/25 00:17:48;;;;;;;0.55;0.50;;;;;;;;;;4923059;29;20048;-58
2023/04/25 00:20:18;;;;;;;2.38;0.75;;;;;;;;;;4925687;29;20245;-59
2023/04/25 00:22:47;;;;;;;0.52;0.50;;;;;;;;;;4926152;29;20488;-58
2023/04/25 00:25:16;;;;;;;0.30;0.30;;;;;;;;;;4924740;28;20047;-59
2023/04/25 00:27:44;;;;;;;0.65;0.40;;;;;;;;;;4923218;29;20052;-59
2023/04/25 00:30:13;;;;;;;3.03;0.60;;;;;;;;;;4920898;29;20062;-59
2023/04/25 00:32:42;;;;;;;0.40;0.20;;;;;;;;;;4919562;29;20159;-58
2023/04/25 00:35:10;;;;;;;5.05;0.43;;;;;;;;;;4922023;29;20451;-59
2023/04/25 00:37:40;;;;;;;1.85;0.70;;;;;;;;;;4918448;28;20060;-59
2023/04/25 00:40:09;;;;;;;1.58;0.50;;;;;;;;;;4923813;29;20055;-58
2023/04/25 00:42:37;;;;;;;0.55;0.45;;;;;;;;;;4918493;29;20512;-59
2023/04/25 00:45:07;;;;;;;1.08;0.60;;;;;;;;;;4926646;29;20156;-59
2023/04/25 00:47:37;;;;;;;0.38;0.28;;;;;;;;;;4925438;28;20171;-58
2023/04/25 00:50:06;;;;;;;0.50;0.50;;;;;;;;;;4922404;29;20506;-59
2023/04/25 00:52:34;;;;;;;1.10;0.90;;;;;;;;;;4919990;29;20048;-59
2023/04/25 00:55:05;;;;;;;0.75;0.47;;;;;;;;;;4927345;29;20463;-58
2023/04/25 00:57:33;;;;;;;0.50;0.50;;;;;;;;;;4922787;29;20052;-60
2023/04/25 01:00:02;;;;;;;0.50;0.50;;;;;;;;;;4922107;29;20082;-59
2023/04/25 01:02:31;;;;;;;0.25;0.25;;;;;;;;;;4934229;23;20052;-68
2023/04/25 01:04:59;;;;;;;0.20;0.20;;;;;;;;;;4937040;29;20048;-66
2023/04/25 01:07:28;;;;;;;0.50;0.50;;;;;;;;;;4937506;29;20134;-66
2023/04/25 01:09:56;;;;;;;0.45;0.40;;;;;;;;;;4938069;29;20069;-65
2023/04/25 01:12:26;;;;;;;0.40;0.40;;;;;;;;;;4937622;29;20056;-65
2023/04/25 01:14:55;;;;;;;0.32;0.32;;;;;;;;;;4937908;29;20055;-66
2023/04/25 01:17:24;;;;;;;0.65;0.45;;;;;;;;;;4937298;29;20048;-66
2023/04/25 01:19:52;;;;;;;0.68;0.43;;;;;;;;;;4935942;29;20564;-66
2023/04/25 01:22:22;;;;;;;0.40;0.40;;;;;;;;;;4938155;29;20377;-66
2023/04/25 01:24:50;;;;;;;0.57;0.40;;;;;;;;;;4937508;29;20142;-66
2023/04/25 01:27:20;;;;;;;0.20;0.20;;;;;;;;;;4937427;29;20058;-66
2023/04/25 01:29:49;;;;;;;0.35;0.35;;;;;;;;;;4937410;29;20065;-66
2023/04/25 01:32:17;;;;;;;1.45;0.60;;;;;;;;;;4936912;29;20048;-66
2023/04/25 01:34:46;;;;;;;0.93;0.30;;;;;;;;;;4937812;29;20135;-65
2023/04/25 01:37:14;;;;;;;7.10;0.45;;;;;;;;;;4928958;29;20414;-65
2023/04/25 01:39:44;;;;;;;0.32;0.28;;;;;;;;;;4920316;29;20051;-65
2023/04/25 01:42:14;;;;;;;0.20;0.20;;;;;;;;;;4922102;29;20063;-66
2023/04/25 01:44:42;;;;;;;0.85;0.63;;;;;;;;;;4920889;29;20143;-65
2023/04/25 01:47:11;;;;;;;0.55;0.50;;;;;;;;;;4919327;29;20055;-65
2023/04/25 01:49:39;;;;;;;1.67;0.82;;;;;;;;;;4914083;29;20051;-66
2023/04/25 01:52:07;;;;;;;2.20;0.43;;;;;;;;;;4922839;29;20043;-65
2023/04/25 01:54:36;;;;;;;1.13;0.65;;;;;;;;;;4922103;29;20054;-66
2023/04/25 01:57:05;;;;;;;0.52;0.47;;;;;;;;;;4921779;28;21261;-65
2023/04/25 01:59:34;;;;;;;0.73;0.55;;;;;;;;;;4922401;29;20062;-65
2023/04/25 02:02:03;;;;;;;0.40;0.40;;;;;;;;;;4923070;29;20050;-65
2023/04/25 02:04:31;;;;;;;0.85;0.57;;;;;;;;;;4919771;29;20040;-65
2023/04/25 02:07:00;;;;;;;0.50;0.47;;;;;;;;;;4923349;29;20146;-66
2023/04/25 02:09:28;;;;;;;0.20;0.20;;;;;;;;;;4923687;29;20139;-66
2023/04/25 02:11:57;;;;;;;0.50;0.28;;;;;;;;;;4918876;29;20416;-66
2023/04/25 02:14:26;;;;;;;0.30;0.22;;;;;;;;;;4923675;29;20386;-66
2023/04/25 02:16:55;;;;;;;1.10;0.55;;;;;;;;;;4920464;29;20062;-66
2023/04/25 02:19:23;;;;;;;0.47;0.38;;;;;;;;;;4918903;29;20091;-67
2023/04/25 02:21:52;;;;;;;2.83;0.77;;;;;;;;;;4919043;29;20726;-66
2023/04/25 02:24:20;;;;;;;1.13;0.63;;;;;;;;;;4921260;29;20066;-66
2023/04/25 02:26:49;;;;;;;0.55;0.40;;;;;;;;;;4924155;28;20051;-66
2023/04/25 02:29:17;;;;;;;0.43;0.43;;;;;;;;;;4918347;29;20054;-66
2023/04/25 02:31:47;;;;;;;0.22;0.22;;;;;;;;;;4920453;28;20066;-66
2023/04/25 02:34:15;;;;;;;0.80;0.43;;;;;;;;;;4921220;29;20560;-66
2023/04/25 02:36:44;;;;;;;0.47;0.43;;;;;;;;;;4923059;29;20426;-66
2023/04/25 02:39:12;;;;;;;0.55;0.45;;;;;;;;;;4924871;29;20051;-66
2023/04/25 02:41:40;;;;;;;0.60;0.60;;;;;;;;;;4916208;29;20061;-67
2023/04/25 02:44:09;;;;;;;1.65;0.65;;;;;;;;;;4923302;29;20055;-66
2023/04/25 02:46:37;;;;;;;0.70;0.52;;;;;;;;;;4917353;28;20063;-66
2023/04/25 02:49:08;;;;;;;0.68;0.50;;;;;;;;;;4921513;29;20198;-66
2023/04/25 02:51:37;;;;;;;1.70;0.70;;;;;;;;;;4924727;29;20044;-66
2023/04/25 02:54:06;;;;;;;0.95;0.60;;;;;;;;;;4925577;29;20058;-66
2023/04/25 02:56:34;;;;;;;0.55;0.52;;;;;;;;;;4922142;28;20422;-66
2023/04/25 02:59:03;;;;;;;0.60;0.30;;;;;;;;;;4917460;29;20055;-66
2023/04/25 03:01:31;;;;;;;0.98;0.57;;;;;;;;;;4923106;29;20048;-65
2023/04/25 03:03:59;;;;;;;0.68;0.50;;;;;;;;;;4918443;29;20059;-66
2023/04/25 03:06:29;;;;;;;1.05;0.55;;;;;;;;;;4926334;28;20040;-66
2023/04/25 03:08:57;;;;;;;0.60;0.30;;;;;;;;;;4920016;29;20048;-66
2023/04/25 03:11:26;;;;;;;2.95;0.90;;;;;;;;;;4917313;29;20050;-66
2023/04/25 03:13:55;;;;;;;1.25;0.73;;;;;;;;;;4920847;28;20440;-66
2023/04/25 03:16:23;;;;;;;0.73;0.68;;;;;;;;;;4918545;28;20062;-66
2023/04/25 03:18:52;;;;;;;2.60;0.73;;;;;;;;;;4922378;29;20052;-66
2023/04/25 03:21:20;;;;;;;1.52;1.30;;;;;;;;;;4919846;29;20055;-66
2023/04/25 03:23:50;;;;;;;1.23;0.57;;;;;;;;;;4920938;29;20051;-67
2023/04/25 03:26:19;;;;;;;0.65;0.50;;;;;;;;;;4917570;28;20052;-66
2023/04/25 03:28:47;;;;;;;0.57;0.45;;;;;;;;;;4926672;29;20178;-66
2023/04/25 03:31:16;;;;;;;3.15;0.47;;;;;;;;;;4921475;29;20048;-66
2023/04/25 03:33:44;;;;;;;0.57;0.57;;;;;;;;;;4916920;29;20448;-67
2023/04/25 03:36:12;;;;;;;0.82;0.50;;;;;;;;;;4921991;28;20039;-67
2023/04/25 03:38:41;;;;;;;0.50;0.50;;;;;;;;;;4921342;29;20494;-66
2023/04/25 03:41:11;;;;;;;0.90;0.52;;;;;;;;;;4922706;29;20051;-66
2023/04/25 03:43:39;;;;;;;0.75;0.60;;;;;;;;;;4915436;29;20056;-66
2023/04/25 03:46:08;;;;;;;2.72;0.75;;;;;;;;;;4918583;28;20409;-66
2023/04/25 03:48:36;;;;;;;0.55;0.55;;;;;;;;;;4918903;29;20050;-66
2023/04/25 03:51:05;;;;;;;2.38;0.70;;;;;;;;;;4924414;29;20052;-66
2023/04/25 03:53:33;;;;;;;0.30;0.30;;;;;;;;;;4925993;29;20070;-66
2023/04/25 03:56:01;;;;;;;0.50;0.30;;;;;;;;;;4923497;28;20104;-66
2023/04/25 03:58:31;;;;;;;4.35;0.68;;;;;;;;;;4922953;29;20098;-66
2023/04/25 04:01:00;;;;;;;0.50;0.50;;;;;;;;;;4923287;29;20040;-66
2023/04/25 04:03:28;;;;;;;8.07;0.47;;;;;;;;;;4922220;29;21045;-66
2023/04/25 04:05:57;;;;;;;0.75;0.30;;;;;;;;;;4919570;28;20039;-66
2023/04/25 04:08:25;;;;;;;0.22;0.22;;;;;;;;;;4921498;29;20142;-66
2023/04/25 04:10:54;;;;;;;0.52;0.25;;;;;;;;;;4925525;29;20053;-66
2023/04/25 04:13:22;;;;;;;0.38;0.38;;;;;;;;;;4927236;29;20054;-66
2023/04/25 04:15:52;;;;;;;1.33;0.70;;;;;;;;;;4923136;28;20060;-67
2023/04/25 04:18:20;;;;;;;2.20;0.60;;;;;;;;;;4924635;29;20051;-67
2023/04/25 04:20:49;;;;;;;0.55;0.40;;;;;;;;;;4926164;29;20139;-67
2023/04/25 04:23:17;;;;;;;0.20;0.20;;;;;;;;;;4924125;29;20130;-67
2023/04/25 04:25:46;;;;;;;0.20;0.20;;;;;;;;;;4926515;28;20143;-67
2023/04/25 04:28:15;;;;;;;1.27;0.55;;;;;;;;;;4921200;29;20147;-67
2023/04/25 04:30:46;;;;;;;0.50;0.50;;;;;;;;;;4921260;29;20086;-67
2023/04/25 04:33:18;;;;;;;1.65;1.10;;;;;;;;;;4921138;29;20052;-71
2023/04/25 04:35:48;;;;;;;0.40;0.40;;;;;;;;;;4924225;28;20098;-68
2023/04/25 04:38:16;;;;;;;0.85;0.47;;;;;;;;;;4916325;29;20055;-67
2023/04/25 04:40:44;;;;;;;0.17;0.17;;;;;;;;;;4921455;29;20062;-67
2023/04/25 04:43:16;;;;;;;1.38;0.38;;;;;;;;;;4926002;29;20048;-67
2023/04/25 04:45:45;;;;;;;2.72;0.40;;;;;;;;;;4918334;29;20087;-67
2023/04/25 04:48:13;;;;;;;0.50;0.30;;;;;;;;;;4922894;29;20055;-67
2023/04/25 04:50:45;;;;;;;0.10;0.10;;;;;;;;;;4920710;29;20056;-66
2023/04/25 04:53:15;;;;;;;0.88;0.30;;;;;;;;;;4923654;29;20139;-67
2023/04/25 04:55:43;;;;;;;2.67;0.45;;;;;;;;;;4923052;28;20138;-66
2023/04/25 04:58:11;;;;;;;1.23;0.63;;;;;;;;;;4923595;29;20411;-66
2023/04/25 05:00:40;;;;;;;1.33;0.57;;;;;;;;;;4923524;29;20095;-66
2023/04/25 05:03:08;;;;;;;6.88;0.38;;;;;;;;;;4928243;29;20453;-67
2023/04/25 05:05:39;;;;;;;0.73;0.60;;;;;;;;;;4919549;28;20050;-67
2023/04/25 05:08:09;;;;;;;0.30;0.30;;;;;;;;;;4926281;29;20134;-67
2023/04/25 05:10:37;;;;;;;0.80;0.40;;;;;;;;;;4924327;29;20520;-66
2023/04/25 05:13:06;;;;;;;0.73;0.30;;;;;;;;;;4919384;29;20399;-67
2023/04/25 05:15:34;;;;;;;0.55;0.52;;;;;;;;;;4920896;29;20044;-66
2023/04/25 05:18:03;;;;;;;0.35;0.32;;;;;;;;;;4920133;29;21188;-67
2023/04/25 05:20:32;;;;;;;0.15;0.15;;;;;;;;;;4926123;29;20390;-67
2023/04/25 05:23:00;;;;;;;0.38;0.38;;;;;;;;;;4932705;29;20066;-66
2023/04/25 05:25:30;;;;;;;0.47;0.40;;;;;;;;;;4925041;28;20048;-67
2023/04/25 05:27:58;;;;;;;0.55;0.55;;;;;;;;;;4919086;29;20054;-66
2023/04/25 05:30:26;;;;;;;2.20;0.52;;;;;;;;;;4918585;29;20549;-66
2023/04/25 05:32:55;;;;;;;1.02;0.68;;;;;;;;;;4920629;29;20516;-66
2023/04/25 05:35:24;;;;;;;1.73;0.40;;;;;;;;;;4925829;28;20412;-65
2023/04/25 05:37:52;;;;;;;1.35;0.45;;;;;;;;;;4918729;29;20056;-67
2023/04/25 05:40:20;;;;;;;0.60;0.60;;;;;;;;;;4921790;29;20048;-66
2023/04/25 05:42:50;;;;;;;0.93;0.75;;;;;;;;;;4928271;29;20507;-66
2023/04/25 05:45:19;;;;;;;1.02;0.38;;;;;;;;;;4921709;28;21289;-65
2023/04/25 05:47:47;;;;;;;0.30;0.30;;;;;;;;;;4920878;29;20078;-66
2023/04/25 05:50:15;;;;;;;0.93;0.50;;;;;;;;;;4926730;29;20115;-66
2023/04/25 05:52:44;;;;;;;0.20;0.20;;;;;;;;;;4923619;29;20064;-66
2023/04/25 05:55:13;;;;;;;3.10;0.90;;;;;;;;;;4916183;28;20048;-66
2023/04/25 05:57:44;;;;;;;0.63;0.63;;;;;;;;;;4919281;29;20050;-66
2023/04/25 06:00:15;;;;;;;0.63;0.50;;;;;;;;;;4919628;29;20051;-65
2023/04/25 06:02:44;;;;;;;0.20;0.20;;;;;;;;;;4918970;29;20503;-66
2023/04/25 06:05:12;;;;;;;2.30;0.60;;;;;;;;;;4925198;28;20088;-65
2023/04/25 06:07:41;;;;;;;1.38;0.30;;;;;;;;;;4922790;29;20063;-66
2023/04/25 06:10:10;;;;;;;0.40;0.40;;;;;;;;;;4925424;29;20106;-64
2023/04/25 06:12:38;;;;;;;4.43;0.60;;;;;;;;;;4919372;29;20047;-65
2023/04/25 06:15:07;;;;;;;0.35;0.30;;;;;;;;;;4924312;29;20544;-65
2023/04/25 06:17:57;;;;;;;2.60;2.38;;;;;;;;;;4906355;29;20493;-65
2023/04/25 06:20:26;;;;;;;1.63;0.35;;;;;;;;;;4922640;29;20056;-66
2023/04/25 06:22:54;;;;;;;1.15;0.80;;;;;;;;;;4926272;29;20098;-66
2023/04/25 06:25:23;;;;;;;1.25;0.60;;;;;;;;;;4918624;29;20048;-65
2023/04/25 06:27:51;;;;;;;7.15;0.50;;;;;;;;;;4921473;29;20039;-67
2023/04/25 06:30:23;;;;;;;1.92;0.60;;;;;;;;;;4921828;29;20126;-65
2023/04/25 06:32:51;;;;;;;2.83;1.08;;;;;;;;;;4925079;29;20059;-66
2023/04/25 06:35:21;;;;;;;1.67;0.63;;;;;;;;;;4922321;28;20052;-66
2023/04/25 06:37:49;;;;;;;0.45;0.45;;;;;;;;;;4920310;29;20524;-66
2023/04/25 06:40:18;;;;;;;0.90;0.43;;;;;;;;;;4927799;29;20051;-66
2023/04/25 06:42:46;;;;;;;0.90;0.40;;;;;;;;;;4928108;29;20051;-66
2023/04/25 06:45:14;;;;;;;14.27;0.68;;;;;;;;;;4924260;29;20104;-66
2023/04/25 06:47:43;;;;;;;0.98;0.57;;;;;;;;;;4917255;29;20083;-66
2023/04/25 06:50:11;;;;;;;3.50;0.63;;;;;;;;;;4924408;29;20051;-65
2023/04/25 06:52:41;;;;;;;0.28;0.25;;;;;;;;;;4924639;29;20147;-66
2023/04/25 06:55:10;;;;;;;0.40;0.40;;;;;;;;;;4913353;29;20047;-65
2023/04/25 06:57:39;;;;;;;1.35;0.73;;;;;;;;;;4916681;29;20087;-65
2023/04/25 07:00:09;;;;;;;0.43;0.43;;;;;;;;;;4920396;29;20048;-66
2023/04/25 07:02:37;;;;;;;1.15;0.63;;;;;;;;;;4919410;29;20128;-66
2023/04/25 07:05:06;;;;;;;0.50;0.50;;;;;;;;;;4924567;29;20098;-66
2023/04/25 07:07:34;;;;;;;0.60;0.52;;;;;;;;;;4924971;29;20044;-65
2023/04/25 07:10:05;;;;;;;1.30;0.60;;;;;;;;;;4922052;29;20048;-64
2023/04/25 07:12:36;;;;;;;2.47;0.60;;;;;;;;;;4926667;29;20054;-68
2023/04/25 07:15:05;;;;;;;1.23;0.80;;;;;;;;;;4921286;29;20328;-66
2023/04/25 07:17:34;;;;;;;1.30;0.73;;;;;;;;;;4914306;29;20065;-67
2023/04/25 07:20:03;;;;;;;1.17;0.40;;;;;;;;;;4926158;29;20576;-67
2023/04/25 07:22:32;;;;;;;0.50;0.50;;;;;;;;;;4923235;29;20119;-66
2023/04/25 07:25:00;;;;;;;1.00;0.40;;;;;;;;;;4921020;29;20454;-66
2023/04/25 07:27:30;;;;;;;1.77;0.65;;;;;;;;;;4918235;28;20075;-66
2023/04/25 07:29:58;;;;;;;2.05;0.52;;;;;;;;;;4922489;29;20047;-66
2023/04/25 07:32:27;;;;;;;0.30;0.30;;;;;;;;;;4924001;29;20062;-67
2023/04/25 07:34:55;;;;;;;1.50;0.30;;;;;;;;;;4923667;29;20079;-66
2023/04/25 07:37:25;;;;;;;0.40;0.40;;;;;;;;;;4921050;29;20051;-66
2023/04/25 07:39:53;;;;;;;2.10;0.40;;;;;;;;;;4915789;29;20119;-65
2023/04/25 07:42:22;;;;;;;0.55;0.40;;;;;;;;;;4920904;29;20099;-67
2023/04/25 07:44:51;;;;;;;0.63;0.57;;;;;;;;;;4917494;29;20147;-67
2023/04/25 07:47:20;;;;;;;2.97;1.15;;;;;;;;;;4920988;28;20047;-66
2023/04/25 07:49:48;;;;;;;1.52;0.75;;;;;;;;;;4920489;29;20055;-66
2023/04/25 07:52:16;;;;;;;0.30;0.30;;;;;;;;;;4922700;29;20048;-66
2023/04/25 07:54:45;;;;;;;0.90;0.57;;;;;;;;;;4921828;29;20075;-66
2023/04/25 07:57:13;;;;;;;1.45;1.00;;;;;;;;;;4926041;28;20432;-67
2023/04/25 07:59:42;;;;;;;2.13;0.35;;;;;;;;;;4919017;29;20107;-66
2023/04/25 08:02:12;;;;;;;1.75;1.25;;;;;;;;;;4916474;29;20428;-66
2023/04/25 08:04:40;;;;;;;0.68;0.30;;;;;;;;;;4919061;29;20043;-67
2023/04/25 08:07:09;;;;;;;0.98;0.63;;;;;;;;;;4925142;29;20048;-67
2023/04/25 08:09:37;;;;;;;0.40;0.40;;;;;;;;;;4916821;29;20047;-67
2023/04/25 08:12:06;;;;;;;0.77;0.50;;;;;;;;;;4921105;29;20059;-67
2023/04/25 08:14:36;;;;;;;0.30;0.30;;;;;;;;;;4922055;29;20052;-67
2023/04/25 08:17:05;;;;;;;1.20;0.68;;;;;;;;;;4913926;29;20083;-67
2023/04/25 08:19:35;;;;;;;1.58;0.77;;;;;;;;;;4923718;29;20047;-67
2023/04/25 08:22:03;;;;;;;0.82;0.35;;;;;;;;;;4920378;29;20075;-67
2023/04/25 08:24:32;;;;;;;2.88;0.57;;;;;;;;;;4920016;29;20138;-67
2023/04/25 08:27:00;;;;;;;0.57;0.57;;;;;;;;;;4920133;28;21840;-67
2023/04/25 08:29:28;;;;;;;1.20;0.60;;;;;;;;;;4923172;28;20040;-68
2023/04/25 08:31:57;;;;;;;0.43;0.43;;;;;;;;;;4922918;29;20048;-68
2023/04/25 08:34:26;;;;;;;1.98;0.57;;;;;;;;;;4925469;29;20059;-67
2023/04/25 08:36:56;;;;;;;3.13;1.17;;;;;;;;;;4926468;28;20402;-67
2023/04/25 08:39:24;;;;;;;0.35;0.35;;;;;;;;;;4921790;29;20146;-67
2023/04/25 08:41:53;;;;;;;1.13;0.50;;;;;;;;;;4917564;29;20138;-67
2023/04/25 08:44:22;;;;;;;0.50;0.50;;;;;;;;;;4920075;29;20055;-68
2023/04/25 08:46:51;;;;;;;1.30;1.20;;;;;;;;;;4923894;28;20058;-67
2023/04/25 08:49:19;;;;;;;0.75;0.40;;;;;;;;;;4921049;29;20497;-67
2023/04/25 08:51:51;;;;;;;0.30;0.30;;;;;;;;;;4921800;29;20051;-67
2023/04/25 08:54:24;;;;;;;0.70;0.65;;;;;;;;;;4922697;29;20051;-67
2023/04/25 08:57:05;;;;;;;0.20;0.20;;;;;;;;;;4918411;29;20577;-66
2023/04/25 08:59:33;;;;;;;1.10;0.45;;;;;;;;;;4922362;29;20489;-68
2023/04/25 09:02:05;;;;;;;2.90;0.60;;;;;;;;;;4927072;29;20075;-68
2023/04/25 09:04:33;;;;;;;0.40;0.40;;;;;;;;;;4925396;29;20108;-68
2023/04/25 09:07:02;;;;;;;6.85;0.80;;;;;;;;;;4922670;28;20082;-67
2023/04/25 09:09:31;;;;;;;0.88;0.77;;;;;;;;;;4923931;29;20305;-67
2023/04/25 09:12:01;;;;;;;0.22;0.22;;;;;;;;;;4919194;29;20051;-67
2023/04/25 09:14:30;;;;;;;0.10;0.10;;;;;;;;;;4920419;29;20494;-66
2023/04/25 09:17:02;;;;;;;1.77;1.23;;;;;;;;;;4928694;28;20051;-66
2023/04/25 09:19:31;;;;;;;0.80;0.32;;;;;;;;;;4922752;29;20106;-66
2023/04/25 09:22:08;;;;;;;1.00;0.40;;;;;;;;;;4920255;29;20055;-66
2023/04/25 09:24:39;;;;;;;1.95;0.60;;;;;;;;;;4925256;29;20130;-68
2023/04/25 09:27:07;;;;;;;0.38;0.38;;;;;;;;;;4921973;28;20044;-65
2023/04/25 09:29:37;;;;;;;0.57;0.20;;;;;;;;;;4925601;29;20060;-66
2023/04/25 09:32:12;;;;;;;0.77;0.50;;;;;;;;;;4918410;29;20079;-66
2023/04/25 09:34:42;;;;;;;1.52;0.40;;;;;;;;;;4922526;29;20138;-66
2023/04/25 09:37:11;;;;;;;0.22;0.20;;;;;;;;;;4922339;28;20623;-66
2023/04/25 09:39:41;;;;;;;0.45;0.35;;;;;;;;;;4924382;29;20445;-66
2023/04/25 09:42:11;;;;;;;2.95;0.50;;;;;;;;;;4918646;29;20193;-66
2023/04/25 09:44:43;;;;;;;1.13;0.40;;;;;;;;;;4916924;29;20456;-67
2023/04/25 09:47:12;;;;;;;0.20;0.20;;;;;;;;;;4916011;29;20079;-66
2023/04/25 09:49:43;;;;;;;1.05;0.70;;;;;;;;;;4922749;29;20054;-65
2023/04/25 09:52:14;;;;;;;1.20;0.70;;;;;;;;;;4921396;29;20064;-67
2023/04/25 09:54:44;;;;;;;1.95;1.80;;;;;;;;;;4918371;29;20059;-67
2023/04/25 09:57:13;;;;;;;2.58;0.60;;;;;;;;;;4919244;28;20051;-65
2023/04/25 09:59:45;;;;;;;0.73;0.38;;;;;;;;;;4920671;29;20052;-66
2023/04/25 10:02:14;;;;;;;0.40;0.40;;;;;;;;;;4921537;29;21335;-65
2023/04/25 10:04:43;;;;;;;2.17;0.43;;;;;;;;;;4924947;29;20166;-68
2023/04/25 10:07:12;;;;;;;0.30;0.30;;;;;;;;;;4920944;28;20044;-66
2023/04/25 10:09:41;;;;;;;0.30;0.30;;;;;;;;;;4923836;29;20044;-65
2023/04/25 10:12:11;;;;;;;0.85;0.47;;;;;;;;;;4918014;29;20186;-66
2023/04/25 10:14:40;;;;;;;9.20;0.82;;;;;;;;;;4920064;29;20052;-65
2023/04/25 10:17:08;;;;;;;3.90;0.52;;;;;;;;;;4922886;28;20066;-65
2023/04/25 10:19:37;;;;;;;3.58;0.68;;;;;;;;;;4924293;29;20066;-66
2023/04/25 10:22:08;;;;;;;0.95;0.60;;;;;;;;;;4918673;29;20098;-66
2023/04/25 10:24:37;;;;;;;0.43;0.40;;;;;;;;;;4925065;29;20147;-65
2023/04/25 10:27:06;;;;;;;0.20;0.20;;;;;;;;;;4917584;29;20050;-65
2023/04/25 10:29:36;;;;;;;0.73;0.38;;;;;;;;;;4923757;29;20418;-66
2023/04/25 10:32:05;;;;;;;1.38;0.52;;;;;;;;;;4924329;29;20048;-65
2023/04/25 10:34:41;;;;;;;1.05;0.45;;;;;;;;;;4926836;29;20056;-66
2023/04/25 10:37:13;;;;;;;0.40;0.40;;;;;;;;;;4925821;28;20056;-67
2023/04/25 10:39:42;;;;;;;0.70;0.70;;;;;;;;;;4929251;29;20052;-67
2023/04/25 10:42:10;;;;;;;0.40;0.20;;;;;;;;;;4924419;29;20050;-66
2023/04/25 10:44:40;;;;;;;0.50;0.40;;;;;;;;;;4913965;29;20432;-67
2023/04/25 10:47:10;;;;;;;0.20;0.20;;;;;;;;;;4918629;29;20044;-65
2023/04/25 10:49:39;;;;;;;0.68;0.40;;;;;;;;;;4918054;29;20060;-67
2023/04/25 10:52:17;;;;;;;0.98;0.30;;;;;;;;;;4921782;29;20070;-66
2023/04/25 10:54:49;;;;;;;0.35;0.35;;;;;;;;;;4919723;29;20047;-67
2023/04/25 10:57:31;;;;;;;0.30;0.20;;;;;;;;;;4922093;28;20130;-66
2023/04/25 11:00:04;;;;;;;0.55;0.38;;;;;;;;;;4917929;29;20056;-66
2023/04/25 11:02:38;;;;;;;0.55;0.35;;;;;;;;;;4920648;29;20468;-65
2023/04/25 11:05:08;;;;;;;0.25;0.20;;;;;;;;;;4920305;29;21224;-66
2023/04/25 11:07:39;;;;;;;0.28;0.28;;;;;;;;;;4923512;29;20110;-66
2023/04/25 11:10:08;;;;;;;0.80;0.32;;;;;;;;;;4919336;29;20048;-65
2023/04/25 11:12:36;;;;;;;0.47;0.30;;;;;;;;;;4919540;29;20127;-65
2023/04/25 11:15:07;;;;;;;0.55;0.20;;;;;;;;;;4916993;29;20429;-65
2023/04/25 11:17:36;;;;;;;0.93;0.40;;;;;;;;;;4921420;29;20567;-65
2023/04/25 11:20:11;;;;;;;0.50;0.38;;;;;;;;;;4919815;29;20540;-65
2023/04/25 11:22:41;;;;;;;0.43;0.40;;;;;;;;;;4917367;29;20060;-65
2023/04/25 11:25:10;;;;;;;1.10;0.73;;;;;;;;;;4924295;29;20933;-65
2023/04/25 11:27:51;;;;;;;4.95;0.50;;;;;;;;;;4916823;29;20143;-64
2023/04/25 11:30:21;;;;;;;0.98;0.75;;;;;;;;;;4918755;29;20535;-65
2023/04/25 11:32:49;;;;;;;0.80;0.40;;;;;;;;;;4921055;29;20834;-64
2023/04/25 11:35:18;;;;;;;0.30;0.30;;;;;;;;;;4919698;28;20052;-66
2023/04/25 11:37:46;;;;;;;1.65;0.43;;;;;;;;;;4920943;29;20051;-66
2023/04/25 11:40:15;;;;;;;0.30;0.30;;;;;;;;;;4924880;29;20520;-68
2023/04/25 11:42:45;;;;;;;0.75;0.40;;;;;;;;;;4918864;29;20056;-69
2023/04/25 11:45:14;;;;;;;0.57;0.50;;;;;;;;;;4914546;29;20040;-67
2023/04/25 11:47:43;;;;;;;8.98;0.50;;;;;;;;;;4923348;29;20048;-66
2023/04/25 11:50:14;;;;;;;1.05;0.60;;;;;;;;;;4921278;29;20056;-66
2023/04/25 11:52:43;;;;;;;0.73;0.40;;;;;;;;;;4914090;29;20050;-64
2023/04/25 11:55:14;;;;;;;0.30;0.30;;;;;;;;;;4917448;29;20056;-65
2023/04/25 11:57:43;;;;;;;0.32;0.32;;;;;;;;;;4920394;29;20058;-64
2023/04/25 12:00:13;;;;;;;0.63;0.43;;;;;;;;;;4920539;29;20485;-65
2023/04/25 12:02:48;;;;;;;0.20;0.20;;;;;;;;;;4917650;29;20513;-65
2023/04/25 12:05:17;;;;;;;2.97;0.60;;;;;;;;;;4924557;29;20485;-63
2023/04/25 12:07:48;;;;;;;1.13;0.47;;;;;;;;;;4921547;29;20063;-63
2023/04/25 12:10:17;;;;;;;0.38;0.38;;;;;;;;;;4926452;29;20401;-64
2023/04/25 12:12:46;;;;;;;1.40;0.32;;;;;;;;;;4920033;29;20505;-63
2023/04/25 12:15:17;;;;;;;0.45;0.40;;;;;;;;;;4927542;28;20070;-64
2023/04/25 12:17:47;;;;;;;1.15;0.45;;;;;;;;;;4923343;29;20052;-63
2023/04/25 12:20:17;;;;;;;1.00;0.68;;;;;;;;;;4922382;29;20130;-63
2023/04/25 12:22:46;;;;;;;5.05;0.60;;;;;;;;;;4928029;29;20083;-65
2023/04/25 12:25:15;;;;;;;0.13;0.13;;;;;;;;;;4926361;28;20464;-64
2023/04/25 12:27:43;;;;;;;0.50;0.15;;;;;;;;;;4918999;29;20150;-63
2023/04/25 12:30:12;;;;;;;0.63;0.30;;;;;;;;;;4921281;29;20490;-64
2023/04/25 12:32:41;;;;;;;0.80;0.30;;;;;;;;;;4924078;29;20056;-64
2023/04/25 12:35:11;;;;;;;0.47;0.47;;;;;;;;;;4923235;29;20052;-63
2023/04/25 12:37:39;;;;;;;2.35;0.65;;;;;;;;;;4923888;29;20074;-63
2023/04/25 12:40:09;;;;;;;0.17;0.17;;;;;;;;;;4920617;29;20067;-63
2023/04/25 12:42:38;;;;;;;1.83;0.35;;;;;;;;;;4924379;29;20048;-63
2023/04/25 12:45:07;;;;;;;1.15;0.55;;;;;;;;;;4925814;29;20666;-64
2023/04/25 12:47:35;;;;;;;0.95;0.17;;;;;;;;;;4927500;29;20421;-65
2023/04/25 12:50:04;;;;;;;0.32;0.30;;;;;;;;;;4917502;29;20138;-63
2023/04/25 12:52:34;;;;;;;0.57;0.32;;;;;;;;;;4921848;29;20489;-64
2023/04/25 12:55:02;;;;;;;0.47;0.28;;;;;;;;;;4930403;29;20054;-66
2023/04/25 12:57:31;;;;;;;0.85;0.32;;;;;;;;;;4925489;29;20060;-66
2023/04/25 12:59:59;;;;;;;0.77;0.52;;;;;;;;;;4924964;29;20079;-63
2023/04/25 13:02:27;;;;;;;0.30;0.30;;;;;;;;;;4926135;29;20130;-63
2023/04/25 13:04:56;;;;;;;0.70;0.40;;;;;;;;;;4923685;29;20544;-64
2023/04/25 13:07:25;;;;;;;1.67;0.40;;;;;;;;;;4924061;29;20612;-64
2023/04/25 13:09:54;;;;;;;0.90;0.40;;;;;;;;;;4920158;29;20851;-64
2023/04/25 13:12:23;;;;;;;0.85;0.40;;;;;;;;;;4920633;29;20142;-64
2023/04/25 13:14:51;;;;;;;1.60;0.40;;;;;;;;;;4925029;29;20052;-64
2023/04/25 13:17:19;;;;;;;0.20;0.20;;;;;;;;;;4923379;29;20292;-64
2023/04/25 13:19:48;;;;;;;5.40;1.13;;;;;;;;;;4920890;29;20115;-64
2023/04/25 13:22:19;;;;;;;0.28;0.25;;;;;;;;;;4922451;29;20051;-63
2023/04/25 13:24:48;;;;;;;0.47;0.30;;;;;;;;;;4922416;29;20170;-63
2023/04/25 13:27:18;;;;;;;0.10;0.10;;;;;;;;;;4921317;28;20048;-64
2023/04/25 13:29:46;;;;;;;0.50;0.50;;;;;;;;;;4925133;29;20047;-65
2023/04/25 13:32:15;;;;;;;0.80;0.20;;;;;;;;;;4921143;29;20058;-64
2023/04/25 13:34:43;;;;;;;0.55;0.28;;;;;;;;;;4921972;29;20151;-66
2023/04/25 13:37:11;;;;;;;0.52;0.20;;;;;;;;;;4924163;28;20059;-63
2023/04/25 13:39:40;;;;;;;3.60;0.40;;;;;;;;;;4919600;29;20421;-63
2023/04/25 13:42:08;;;;;;;0.35;0.35;;;;;;;;;;4919854;29;20044;-64
2023/04/25 13:44:38;;;;;;;1.10;0.20;;;;;;;;;;4920517;29;20432;-64
2023/04/25 13:47:06;;;;;;;0.20;0.20;;;;;;;;;;4924869;28;20043;-63
2023/04/25 13:49:35;;;;;;;0.17;0.17;;;;;;;;;;4918988;29;20147;-63
2023/04/25 13:52:03;;;;;;;0.10;0.10;;;;;;;;;;4920900;29;20584;-63
2023/04/25 13:54:32;;;;;;;0.10;0.10;;;;;;;;;;4916941;29;20062;-63
2023/04/25 13:57:01;;;;;;;0.17;0.17;;;;;;;;;;4917265;29;20062;-64
2023/04/25 13:59:29;;;;;;;1.27;0.28;;;;;;;;;;4922918;29;20063;-63
2023/04/25 14:01:59;;;;;;;0.43;0.20;;;;;;;;;;4924208;29;20058;-64
2023/04/25 14:04:28;;;;;;;1.55;0.52;;;;;;;;;;4923831;29;20360;-64
2023/04/25 14:06:57;;;;;;;0.40;0.40;;;;;;;;;;4919209;28;20497;-64
2023/04/25 14:09:27;;;;;;;0.65;0.65;;;;;;;;;;4918416;29;20138;-63
2023/04/25 14:11:56;;;;;;;0.40;0.30;;;;;;;;;;4918847;29;20056;-64
2023/04/25 14:14:25;;;;;;;0.75;0.60;;;;;;;;;;4922663;29;20055;-63
2023/04/25 14:16:54;;;;;;;0.32;0.32;;;;;;;;;;4923433;29;20139;-63
2023/04/25 14:19:24;;;;;;;2.15;0.40;;;;;;;;;;4923987;29;20051;-63
2023/04/25 14:21:52;;;;;;;0.30;0.30;;;;;;;;;;4924684;29;20062;-65
2023/04/25 14:24:21;;;;;;;0.20;0.20;;;;;;;;;;4919434;29;20162;-65
2023/04/25 14:26:49;;;;;;;0.85;0.30;;;;;;;;;;4923662;28;20159;-63
2023/04/25 14:29:18;;;;;;;0.30;0.30;;;;;;;;;;4921850;29;20503;-63
2023/04/25 14:31:46;;;;;;;0.30;0.25;;;;;;;;;;4921384;29;20048;-62
2023/04/25 14:34:15;;;;;;;0.38;0.30;;;;;;;;;;4926271;29;20058;-63
2023/04/25 14:36:45;;;;;;;0.63;0.40;;;;;;;;;;4919279;28;20060;-62
2023/04/25 14:39:14;;;;;;;1.20;0.50;;;;;;;;;;4922015;29;20086;-63
2023/04/25 14:41:42;;;;;;;1.08;0.55;;;;;;;;;;4920399;29;20131;-65
2023/04/25 14:44:11;;;;;;;0.85;0.30;;;;;;;;;;4922481;29;20079;-62
2023/04/25 14:46:39;;;;;;;0.35;0.35;;;;;;;;;;4918218;29;20106;-63
2023/04/25 14:49:08;;;;;;;0.20;0.20;;;;;;;;;;4922615;29;20552;-63
2023/04/25 14:51:36;;;;;;;0.13;0.13;;;;;;;;;;4920226;29;20760;-64
2023/04/25 14:54:06;;;;;;;0.40;0.40;;;;;;;;;;4921621;29;20083;-63